createdAt,value
2023-02-05T00:01:43.965Z,94.70
2023-02-05T00:04:17.413Z,94.37
2023-02-05T00:06:50.770Z,95.19
2023-02-05T00:09:23.981Z,95.63
2023-02-05T00:11:59.279Z,95.49
2023-02-05T00:14:35.090Z,95.86
2023-02-05T00:17:09.066Z,97.38
2023-02-05T00:19:42.316Z,97.50
2023-02-05T00:22:15.596Z,97.84
2023-02-05T00:24:48.876Z,98.46
2023-02-05T00:27:22.091Z,99.27
2023-02-05T00:29:56.614Z,99.37
2023-02-05T00:32:30.474Z,99.61
2023-02-05T00:35:04.060Z,100.00
2023-02-05T00:37:37.438Z,100.00
2023-02-05T00:40:11.914Z,100.00
2023-02-05T00:42:45.097Z,100.00
2023-02-05T00:45:19.748Z,99.50
2023-02-05T00:47:53.312Z,99.56
2023-02-05T00:50:26.681Z,99.93
2023-02-05T00:53:00.280Z,99.30
2023-02-05T00:55:34.046Z,99.05
2023-02-05T00:58:07.513Z,99.03
2023-02-05T01:00:42.416Z,99.10
2023-02-05T01:03:15.704Z,100.00
2023-02-05T01:05:50.325Z,99.04
2023-02-05T01:08:23.733Z,99.89
2023-02-05T01:10:57.889Z,100.00
2023-02-05T01:13:31.781Z,99.99
2023-02-05T01:16:07.919Z,99.56
2023-02-05T01:18:41.456Z,99.60
2023-02-05T01:21:15.000Z,99.78
2023-02-05T01:23:48.704Z,99.84
2023-02-05T01:26:22.273Z,100.00
2023-02-05T01:28:55.390Z,99.98
2023-02-05T01:31:30.827Z,99.86
2023-02-05T01:34:04.117Z,99.83
2023-02-05T01:36:37.477Z,99.45
2023-02-05T01:39:10.759Z,98.62
2023-02-05T01:41:45.831Z,98.36
2023-02-05T01:44:24.478Z,98.43
2023-02-05T01:46:59.086Z,96.36
2023-02-05T01:49:36.554Z,95.47
2023-02-05T01:52:14.115Z,95.43
2023-02-05T01:54:49.126Z,95.33
2023-02-05T01:57:26.226Z,94.81
2023-02-05T02:00:00.151Z,94.35
2023-02-05T02:02:36.711Z,93.56
2023-02-05T02:05:13.703Z,92.95
2023-02-05T02:07:47.871Z,92.04
2023-02-05T02:10:21.487Z,90.64
2023-02-05T02:12:56.486Z,91.17
2023-02-05T02:15:30.365Z,91.44
2023-02-05T02:18:18.732Z,92.75
2023-02-05T02:21:12.349Z,93.43
2023-02-05T02:24:03.819Z,95.19
2023-02-05T02:27:03.772Z,94.93
2023-02-05T02:29:43.144Z,95.40
2023-02-05T02:32:22.038Z,96.06
2023-02-05T02:35:02.413Z,98.37
2023-02-05T02:37:40.490Z,98.90
2023-02-05T02:40:21.550Z,100.00
2023-02-05T02:43:04.424Z,100.00
2023-02-05T02:45:47.381Z,100.00
2023-02-05T02:48:25.736Z,100.00
2023-02-05T02:51:01.307Z,100.00
2023-02-05T02:53:39.092Z,100.00
2023-02-05T02:56:14.877Z,100.00
2023-02-05T02:58:51.492Z,100.00
2023-02-05T03:01:32.695Z,100.00
2023-02-05T03:04:10.813Z,100.00
2023-02-05T03:06:46.817Z,100.00
2023-02-05T03:09:27.502Z,100.00
2023-02-05T03:12:01.813Z,100.00
2023-02-05T03:14:36.797Z,100.00
2023-02-05T03:17:18.599Z,100.00
2023-02-05T03:19:59.391Z,100.00
2023-02-05T03:22:32.962Z,100.00
2023-02-05T03:25:08.866Z,100.00
2023-02-05T03:27:42.544Z,100.00
2023-02-05T03:30:16.033Z,100.00
2023-02-05T03:33:01.778Z,100.00
2023-02-05T03:35:41.588Z,100.00
2023-02-05T03:38:30.469Z,100.00
2023-02-05T03:41:18.003Z,100.00
2023-02-05T03:44:02.373Z,100.00
2023-02-05T03:46:46.200Z,100.00
2023-02-05T03:49:29.294Z,100.00
2023-02-05T03:52:07.393Z,100.00
2023-02-05T03:54:44.981Z,100.00
2023-02-05T03:57:24.207Z,100.00
2023-02-05T03:59:58.858Z,100.00
2023-02-05T04:02:32.878Z,100.00
2023-02-05T04:05:07.796Z,100.00
2023-02-05T04:07:41.003Z,100.00
2023-02-05T04:10:14.803Z,100.00
2023-02-05T04:12:49.106Z,100.00
2023-02-05T04:15:22.909Z,100.00
2023-02-05T04:17:57.997Z,100.00
2023-02-05T04:20:32.968Z,100.00
2023-02-05T04:23:06.220Z,100.00
2023-02-05T04:25:39.848Z,100.00
2023-02-05T04:28:13.869Z,100.00
2023-02-05T04:30:47.364Z,100.00
2023-02-05T04:33:20.765Z,100.00
2023-02-05T04:35:59.989Z,100.00
2023-02-05T04:38:33.298Z,100.00
2023-02-05T04:41:08.096Z,100.00
2023-02-05T04:43:41.285Z,100.00
2023-02-05T04:46:14.531Z,100.00
2023-02-05T04:48:48.404Z,100.00
2023-02-05T04:51:23.364Z,100.00
2023-02-05T04:53:56.631Z,100.00
2023-02-05T04:56:29.987Z,100.00
2023-02-05T04:59:03.223Z,100.00
2023-02-05T05:01:36.599Z,100.00
2023-02-05T05:04:10.325Z,100.00
2023-02-05T05:06:45.250Z,100.00
2023-02-05T05:09:20.917Z,100.00
2023-02-05T05:11:56.452Z,100.00
2023-02-05T05:14:30.344Z,100.00
2023-02-05T05:17:03.948Z,100.00
2023-02-05T05:19:37.419Z,100.00
2023-02-05T05:22:12.977Z,100.00
2023-02-05T05:24:46.339Z,100.00
2023-02-05T05:27:19.764Z,100.00
2023-02-05T05:29:53.001Z,100.00
2023-02-05T05:32:27.600Z,100.00
2023-02-05T05:35:00.810Z,100.00
2023-02-05T05:37:35.610Z,100.00
2023-02-05T05:40:28.456Z,100.00
2023-02-05T05:43:19.014Z,100.00
2023-02-05T05:45:54.118Z,100.00
2023-02-05T05:48:28.885Z,100.00
2023-02-05T05:51:02.283Z,100.00
2023-02-05T05:53:37.093Z,100.00
2023-02-05T05:56:10.733Z,100.00
2023-02-05T05:58:44.396Z,100.00
2023-02-05T06:01:21.160Z,100.00
2023-02-05T06:03:54.347Z,100.00
2023-02-05T06:06:27.774Z,97.49
2023-02-05T06:09:02.543Z,95.47
2023-02-05T06:11:36.184Z,95.11
2023-02-05T06:14:09.681Z,92.95
2023-02-05T06:16:43.006Z,92.40
2023-02-05T06:19:16.512Z,90.99
2023-02-05T06:21:49.974Z,93.67
2023-02-05T06:24:24.558Z,91.53
2023-02-05T06:26:57.987Z,91.35
2023-02-05T06:29:31.433Z,89.96
2023-02-05T06:32:04.946Z,91.25
2023-02-05T06:34:38.353Z,89.66
2023-02-05T06:37:11.779Z,88.29
2023-02-05T06:39:46.491Z,88.26
2023-02-05T06:42:19.893Z,89.08
2023-02-05T06:44:53.312Z,89.24
2023-02-05T06:47:26.934Z,87.61
2023-02-05T06:50:00.448Z,88.29
2023-02-05T06:52:33.677Z,91.96
2023-02-05T06:55:09.023Z,87.08
2023-02-05T06:57:42.162Z,87.22
2023-02-05T07:00:16.750Z,88.29
2023-02-05T07:02:50.252Z,86.58
2023-02-05T07:05:23.790Z,83.96
2023-02-05T07:07:57.099Z,88.04
2023-02-05T07:10:32.078Z,86.80
2023-02-05T07:13:06.223Z,84.32
2023-02-05T07:15:40.381Z,87.49
2023-02-05T07:18:13.810Z,84.69
2023-02-05T07:20:48.222Z,86.25
2023-02-05T07:23:21.584Z,83.94
2023-02-05T07:25:56.108Z,84.77
2023-02-05T07:28:29.425Z,82.90
2023-02-05T07:31:04.703Z,82.41
2023-02-05T07:33:38.618Z,82.73
2023-02-05T07:36:13.657Z,82.90
2023-02-05T07:38:48.310Z,83.79
2023-02-05T07:41:22.920Z,82.81
2023-02-05T07:43:56.320Z,83.56
2023-02-05T07:46:29.784Z,83.38
2023-02-05T07:49:03.388Z,82.64
2023-02-05T07:51:36.801Z,84.19
2023-02-05T07:54:11.167Z,82.52
2023-02-05T07:56:46.028Z,83.32
2023-02-05T07:59:19.449Z,84.56
2023-02-05T08:01:52.921Z,83.18
2023-02-05T08:04:26.457Z,84.04
2023-02-05T08:07:00.303Z,82.75
2023-02-05T08:09:34.315Z,80.56
2023-02-05T08:12:09.955Z,80.24
2023-02-05T08:14:43.713Z,81.61
2023-02-05T08:17:17.453Z,79.72
2023-02-05T08:19:52.007Z,76.74
2023-02-05T08:22:25.594Z,77.91
2023-02-05T08:24:59.106Z,79.30
2023-02-05T08:27:35.092Z,80.98
2023-02-05T08:30:11.795Z,76.43
2023-02-05T08:32:49.322Z,77.20
2023-02-05T08:35:22.687Z,82.77
2023-02-05T08:37:56.291Z,78.84
2023-02-05T08:40:30.105Z,76.73
2023-02-05T08:43:04.974Z,80.83
2023-02-05T08:45:38.906Z,77.93
2023-02-05T08:48:12.247Z,77.84
2023-02-05T08:50:47.347Z,82.74
2023-02-05T08:53:21.321Z,80.42
2023-02-05T08:55:57.058Z,76.74
2023-02-05T08:58:32.120Z,76.69
2023-02-05T09:01:07.372Z,78.62
2023-02-05T09:03:40.958Z,79.69
2023-02-05T09:06:16.764Z,77.50
2023-02-05T09:08:50.010Z,78.38
2023-02-05T09:11:26.689Z,78.88
2023-02-05T09:14:01.860Z,74.62
2023-02-05T09:16:36.217Z,73.90
2023-02-05T09:19:09.946Z,75.35
2023-02-05T09:21:43.473Z,75.12
2023-02-05T09:24:16.808Z,76.40
2023-02-05T09:26:50.029Z,76.30
2023-02-05T09:29:24.818Z,75.31
2023-02-05T09:31:58.904Z,75.19
2023-02-05T09:34:33.200Z,78.81
2023-02-05T09:37:06.904Z,76.63
2023-02-05T09:42:43.166Z,76.83
2023-02-05T09:45:38.511Z,74.26
2023-02-05T09:48:33.789Z,74.68
2023-02-05T09:51:11.153Z,75.78
2023-02-05T09:53:49.820Z,77.90
2023-02-05T09:56:24.365Z,76.68
2023-02-05T09:58:58.963Z,77.19
2023-02-05T10:01:41.979Z,75.47
2023-02-05T10:04:16.248Z,74.79
2023-02-05T10:07:20.785Z,77.17
2023-02-05T10:10:18.355Z,75.78
2023-02-05T10:13:29.220Z,77.73
2023-02-05T10:16:35.924Z,78.11
2023-02-05T10:19:38.417Z,73.25
2023-02-05T10:22:23.531Z,74.63
2023-02-05T10:25:34.846Z,75.30
2023-02-05T10:28:23.750Z,75.51
2023-02-05T10:31:04.880Z,75.63
2023-02-05T10:33:48.118Z,74.10
2023-02-05T10:36:27.289Z,77.66
2023-02-05T10:39:01.780Z,75.38
2023-02-05T10:41:39.711Z,78.32
2023-02-05T10:44:19.650Z,73.14
2023-02-05T10:47:01.778Z,73.30
2023-02-05T10:49:45.748Z,72.25
2023-02-05T10:52:20.680Z,76.05
2023-02-05T10:54:54.234Z,73.82
2023-02-05T10:57:32.534Z,71.79
2023-02-05T11:00:14.332Z,70.11
2023-02-05T11:02:51.749Z,70.90
2023-02-05T11:05:31.581Z,71.51
2023-02-05T11:08:06.652Z,69.77
2023-02-05T11:10:39.991Z,74.04
2023-02-05T11:13:20.093Z,72.72
2023-02-05T11:15:58.899Z,70.90
2023-02-05T11:18:37.821Z,70.26
2023-02-05T11:21:12.201Z,68.47
2023-02-05T11:23:56.613Z,66.65
2023-02-05T11:26:29.924Z,67.03
2023-02-05T11:29:20.731Z,69.83
2023-02-05T11:31:54.334Z,69.59
2023-02-05T11:34:27.841Z,66.76
2023-02-05T11:37:01.358Z,67.40
2023-02-05T11:39:39.020Z,65.42
2023-02-05T11:42:20.195Z,67.40
2023-02-05T11:44:56.419Z,68.51
2023-02-05T11:47:32.970Z,65.18
2023-02-05T11:50:19.439Z,66.86
2023-02-05T11:52:53.781Z,66.36
2023-02-05T11:55:32.497Z,63.93
2023-02-05T11:58:25.120Z,64.36
2023-02-05T12:01:23.978Z,65.27
2023-02-05T12:04:02.120Z,62.22
2023-02-05T12:06:42.462Z,64.10
2023-02-05T12:09:21.237Z,65.17
2023-02-05T12:12:11.356Z,67.92
2023-02-05T12:14:50.884Z,62.12
2023-02-05T12:17:39.858Z,63.76
2023-02-05T12:20:24.066Z,62.72
2023-02-05T12:23:15.880Z,63.86
2023-02-05T12:26:03.484Z,64.08
2023-02-05T12:28:51.772Z,66.44
2023-02-05T12:31:38.063Z,65.55
2023-02-05T12:34:24.433Z,64.62
2023-02-05T12:37:10.689Z,66.34
2023-02-05T12:39:47.998Z,64.96
2023-02-05T12:42:32.789Z,64.88
2023-02-05T12:45:28.272Z,63.16
2023-02-05T12:48:14.680Z,65.32
2023-02-05T12:51:02.206Z,62.92
2023-02-05T12:54:01.175Z,62.57
2023-02-05T12:56:50.535Z,61.88
2023-02-05T12:59:36.470Z,63.18
2023-02-05T13:02:23.928Z,63.58
2023-02-05T13:05:09.886Z,63.13
2023-02-05T13:07:46.660Z,63.69
2023-02-05T13:10:25.008Z,64.01
2023-02-05T13:13:06.072Z,66.29
2023-02-05T13:15:43.750Z,65.77
2023-02-05T13:18:24.888Z,62.65
2023-02-05T13:21:19.222Z,61.96
2023-02-05T13:24:12.432Z,61.93
2023-02-05T13:27:06.021Z,62.26
2023-02-05T13:29:51.299Z,60.93
2023-02-05T13:32:31.218Z,66.02
2023-02-05T13:35:08.551Z,64.76
2023-02-05T13:38:11.463Z,61.38
2023-02-05T13:41:00.651Z,61.78
2023-02-05T13:44:02.115Z,62.44
2023-02-05T13:47:05.922Z,63.50
2023-02-05T13:49:56.875Z,61.37
2023-02-05T13:53:06.182Z,60.65
2023-02-05T13:55:50.741Z,60.41
2023-02-05T13:58:26.993Z,60.29
2023-02-05T14:01:03.580Z,60.57
2023-02-05T14:03:39.513Z,59.94
2023-02-05T14:06:15.952Z,58.63
2023-02-05T14:08:53.084Z,60.98
2023-02-05T14:11:26.832Z,60.74
2023-02-05T14:14:24.095Z,58.78
2023-02-05T14:16:58.313Z,60.50
2023-02-05T14:19:56.983Z,60.58
2023-02-05T14:22:42.374Z,60.93
2023-02-05T14:26:01.753Z,60.68
2023-02-05T14:28:44.249Z,61.10
2023-02-05T14:31:46.507Z,60.16
2023-02-05T14:34:52.213Z,58.49
2023-02-05T14:37:30.906Z,58.49
2023-02-05T14:40:23.091Z,59.34
2023-02-05T14:43:09.824Z,60.84
2023-02-05T14:45:51.389Z,59.74
2023-02-05T14:48:29.947Z,59.36
2023-02-05T14:51:05.702Z,58.91
2023-02-05T14:53:39.934Z,59.68
2023-02-05T14:56:25.885Z,62.00
2023-02-05T14:59:05.252Z,58.52
2023-02-05T15:01:50.158Z,59.15
2023-02-05T15:04:30.241Z,59.55
2023-02-05T15:07:11.181Z,60.78
2023-02-05T15:09:49.665Z,60.24
2023-02-05T15:12:40.273Z,61.76
2023-02-05T15:15:32.395Z,60.95
2023-02-05T15:18:14.756Z,62.70
2023-02-05T15:20:50.150Z,60.23
2023-02-05T15:23:36.799Z,59.44
2023-02-05T15:26:21.065Z,61.77
2023-02-05T15:29:00.951Z,61.60
2023-02-05T15:31:41.412Z,60.23
2023-02-05T15:34:31.066Z,60.91
2023-02-05T15:37:07.707Z,62.41
2023-02-05T15:39:49.665Z,59.70
2023-02-05T15:42:31.837Z,61.42
2023-02-05T15:45:18.835Z,60.22
2023-02-05T15:48:00.286Z,60.75
2023-02-05T15:50:38.792Z,61.08
2023-02-05T15:53:27.372Z,59.25
2023-02-05T15:56:01.956Z,58.20
2023-02-05T15:58:36.102Z,57.66
2023-02-05T16:01:09.461Z,59.18
2023-02-05T16:03:42.945Z,61.92
2023-02-05T16:06:20.991Z,60.28
2023-02-05T16:08:54.488Z,60.15
2023-02-05T16:11:30.278Z,60.54
2023-02-05T16:14:06.688Z,60.55
2023-02-05T16:16:43.059Z,60.59
2023-02-05T16:19:22.988Z,60.32
2023-02-05T16:22:02.283Z,60.67
2023-02-05T16:24:42.288Z,59.89
2023-02-05T16:27:18.851Z,59.80
2023-02-05T16:29:56.576Z,60.42
2023-02-05T16:32:34.340Z,61.59
2023-02-05T16:35:14.837Z,63.19
2023-02-05T16:37:49.518Z,63.08
2023-02-05T16:40:35.432Z,61.46
2023-02-05T16:43:21.398Z,63.65
2023-02-05T16:46:25.881Z,62.90
2023-02-05T16:49:01.816Z,62.85
2023-02-05T16:51:53.602Z,61.77
2023-02-05T16:54:31.782Z,62.62
2023-02-05T16:57:12.764Z,62.34
2023-02-05T16:59:52.771Z,62.30
2023-02-05T17:02:30.591Z,62.50
2023-02-05T17:05:06.431Z,63.24
2023-02-05T17:07:40.421Z,64.94
2023-02-05T17:10:21.513Z,64.69
2023-02-05T17:12:57.981Z,63.16
2023-02-05T17:15:35.189Z,63.92
2023-02-05T17:18:25.346Z,63.68
2023-02-05T17:21:21.071Z,64.35
2023-02-05T17:23:56.874Z,64.19
2023-02-05T17:26:34.813Z,63.75
2023-02-05T17:29:09.893Z,64.06
2023-02-05T17:31:43.813Z,64.03
2023-02-05T17:34:17.357Z,65.68
2023-02-05T17:36:51.570Z,63.99
2023-02-05T17:39:25.247Z,65.24
2023-02-05T17:42:07.784Z,65.96
2023-02-05T17:44:41.226Z,68.35
2023-02-05T17:47:14.673Z,65.71
2023-02-05T17:49:48.085Z,65.06
2023-02-05T17:52:21.409Z,66.86
2023-02-05T17:54:54.608Z,68.22
2023-02-05T17:57:33.787Z,65.84
2023-02-05T18:00:08.327Z,65.29
2023-02-05T18:02:41.898Z,65.90
2023-02-05T18:05:15.204Z,66.76
2023-02-05T18:07:51.881Z,65.25
2023-02-05T18:10:27.461Z,66.13
2023-02-05T18:13:03.065Z,67.32
2023-02-05T18:15:36.735Z,66.31
2023-02-05T18:18:10.913Z,67.57
2023-02-05T18:20:44.576Z,68.69
2023-02-05T18:23:28.382Z,68.09
2023-02-05T18:26:03.022Z,68.25
2023-02-05T18:28:37.978Z,67.46
2023-02-05T18:31:11.569Z,67.00
2023-02-05T18:33:45.791Z,66.23
2023-02-05T18:36:19.267Z,66.17
2023-02-05T18:38:52.503Z,67.26
2023-02-05T18:41:28.582Z,67.08
2023-02-05T18:44:03.589Z,66.96
2023-02-05T18:46:37.061Z,66.95
2023-02-05T18:49:10.516Z,67.91
2023-02-05T18:51:44.146Z,66.89
2023-02-05T18:54:17.444Z,66.30
2023-02-05T18:56:51.755Z,67.72
2023-02-05T18:59:26.582Z,66.54
2023-02-05T19:02:00.157Z,66.58
2023-02-05T19:04:34.006Z,68.59
2023-02-05T19:07:07.248Z,66.86
2023-02-05T19:09:40.468Z,67.23
2023-02-05T19:12:14.281Z,67.72
2023-02-05T19:14:49.387Z,68.56
2023-02-05T19:17:27.272Z,66.78
2023-02-05T19:20:00.556Z,68.56
2023-02-05T19:22:33.876Z,68.18
2023-02-05T19:25:07.990Z,68.14
2023-02-05T19:27:41.284Z,68.98
2023-02-05T19:30:16.442Z,68.06
2023-02-05T19:32:50.179Z,68.13
2023-02-05T19:35:24.264Z,68.43
2023-02-05T19:37:57.588Z,67.35
2023-02-05T19:40:30.800Z,68.90
2023-02-05T19:43:04.248Z,68.72
2023-02-05T19:45:39.166Z,68.83
2023-02-05T19:48:12.953Z,69.54
2023-02-05T19:50:46.456Z,69.31
2023-02-05T19:53:21.286Z,69.54
2023-02-05T19:55:54.485Z,69.17
2023-02-05T19:58:28.047Z,70.24
2023-02-05T20:01:02.822Z,68.79
2023-02-05T20:03:36.517Z,68.84
2023-02-05T20:06:11.562Z,69.23
2023-02-05T20:08:46.328Z,69.07
2023-02-05T20:11:20.403Z,68.43
2023-02-05T20:13:54.425Z,68.54
2023-02-05T20:16:29.255Z,69.13
2023-02-05T20:19:02.744Z,70.81
2023-02-05T20:21:36.209Z,69.95
2023-02-05T20:24:10.365Z,70.07
2023-02-05T20:26:43.947Z,67.77
2023-02-05T20:29:34.869Z,68.12
2023-02-05T20:32:10.768Z,69.66
2023-02-05T20:34:47.719Z,68.87
2023-02-05T20:37:22.225Z,68.60
2023-02-05T20:39:57.605Z,68.04
2023-02-05T20:42:31.318Z,68.05
2023-02-05T20:45:05.120Z,67.81
2023-02-05T20:47:39.829Z,67.52
2023-02-05T20:50:13.380Z,68.38
2023-02-05T20:52:46.884Z,69.34
2023-02-05T20:55:20.534Z,67.58
2023-02-05T20:57:54.456Z,67.46
2023-02-05T21:00:28.325Z,67.90
2023-02-05T21:03:03.072Z,68.13
2023-02-05T21:05:36.375Z,68.38
2023-02-05T21:08:09.644Z,68.33
2023-02-05T21:10:43.044Z,69.05
2023-02-05T21:13:16.909Z,68.49
2023-02-05T21:15:55.104Z,66.97
2023-02-05T21:18:30.858Z,67.37
2023-02-05T21:21:08.040Z,68.36
2023-02-05T21:23:42.218Z,66.80
2023-02-05T21:26:20.993Z,67.75
2023-02-05T21:28:55.386Z,67.28
2023-02-05T21:31:34.026Z,66.32
2023-02-05T21:34:10.520Z,67.36
2023-02-05T21:36:43.998Z,67.51
2023-02-05T21:39:20.181Z,68.13
2023-02-05T21:41:54.248Z,68.43
2023-02-05T21:44:27.726Z,68.08
2023-02-05T21:47:01.253Z,66.86
2023-02-05T21:49:36.554Z,66.83
2023-02-05T21:52:10.275Z,67.04
2023-02-05T21:54:43.649Z,67.16
2023-02-05T21:57:16.898Z,66.29
2023-02-05T21:59:50.265Z,66.26
2023-02-05T22:02:23.696Z,66.60
2023-02-05T22:04:58.429Z,66.20
2023-02-05T22:07:31.895Z,67.51
2023-02-05T22:10:06.096Z,66.12
2023-02-05T22:12:40.053Z,65.79
2023-02-05T22:15:14.319Z,65.75
2023-02-05T22:17:47.881Z,66.56
2023-02-05T22:20:22.642Z,65.72
2023-02-05T22:22:56.384Z,64.97
2023-02-05T22:25:29.924Z,64.78
2023-02-05T22:28:03.413Z,65.45
2023-02-05T22:30:36.753Z,64.79
2023-02-05T22:33:09.971Z,65.58
2023-02-05T22:35:44.920Z,64.85
2023-02-05T22:38:18.179Z,65.32
2023-02-05T22:40:52.938Z,65.68
2023-02-05T22:43:26.190Z,65.25
2023-02-05T22:46:05.043Z,66.35
2023-02-05T22:48:39.914Z,64.33
2023-02-05T22:51:17.643Z,64.42
2023-02-05T22:53:51.282Z,64.19
2023-02-05T22:56:25.442Z,63.98
2023-02-05T22:59:00.254Z,63.82
2023-02-05T23:01:38.306Z,63.61
2023-02-05T23:04:12.655Z,63.70
2023-02-05T23:06:48.104Z,64.71
2023-02-05T23:09:21.885Z,62.99
2023-02-05T23:11:56.862Z,62.41
2023-02-05T23:14:30.766Z,63.39
2023-02-05T23:17:04.688Z,62.87
2023-02-05T23:19:37.954Z,61.14
2023-02-05T23:22:12.622Z,61.15
2023-02-05T23:24:46.377Z,59.88
2023-02-05T23:27:19.614Z,59.97
2023-02-05T23:29:52.968Z,59.97
2023-02-05T23:32:26.552Z,59.62
2023-02-05T23:34:59.760Z,59.09
2023-02-05T23:37:34.924Z,59.69
2023-02-05T23:40:09.982Z,60.90
2023-02-05T23:42:43.665Z,60.73
2023-02-05T23:45:17.031Z,60.65
2023-02-05T23:47:50.117Z,59.78
2023-02-05T23:50:23.585Z,60.03
2023-02-05T23:52:58.285Z,59.94
2023-02-05T23:55:31.814Z,59.30
2023-02-05T23:58:06.514Z,60.58
